METAR Data
IDs: Format: Raw Decoded Include TAF

Data at: 0616 UTC 07 Dec 2022

KBNO 070610Z AUTO 30004KT 1/4SM HZ VV002 M08/M11 A3015 RMK AO2 T10831111
KBNO 070553Z AUTO 00000KT 1/2SM HZ VV002 M08/M11 A3015 RMK AO2 SLP245 I6000 T10831111 11017 21117 53012
KBNO 070453Z AUTO 02003KT 1/4SM HZ VV001 M10/M13 A3013 RMK AO2 SLP243 I1000 T11001128
KBNO 070353Z AUTO 00000KT 1/4SM HZ VV001 M12/M15 A3012 RMK AO2 SLP242 T11171150
KBNO 070326Z AUTO 03003KT 1/4SM HZ VV001 M11/M13 A3011 RMK AO2 T11061133
KBNO 070309Z AUTO 01004KT M1/4SM HZ VV001 M11/M14 A3011 RMK AO2 T11111139
KBNO 070253Z AUTO 00000KT 1/4SM HZ VV001 M11/M14 A3011 RMK AO2 SLP239 I1000 I3000 T11111139 52008
KBNO 070153Z AUTO 00000KT 1/4SM FZFG VV001 M10/M12 A3010 RMK AO2 SLP234 I1000 T11001122
KBNO 070106Z AUTO 20003KT 1/4SM FZFG BKN001 OVC031 M07/M09 A3009 RMK AO2 T10721094
KBNO 070053Z AUTO 21003KT 1/4SM FZFG FEW001 BKN031 M07/M09 A3008 RMK AO2 SLP223 T10671089
KBNO 070046Z AUTO 20003KT 1/2SM FZFG BKN031 M07/M08 A3008 RMK AO2 T10671083
KBNO 070038Z AUTO 21003KT 1SM BR SCT030 M06/M07 A3008 RMK AO2 VIS 1/2V2 1/2 T10611072
KBNO 070031Z AUTO VRB03KT 1/4SM FZFG FEW030 M06/M07 A3009 RMK AO2 T10561072
KBNO 070024Z AUTO 00000KT 1SM BR CLR M04/M07 A3008 RMK AO2 T10441067
KBNO 062353Z AUTO 00000KT 10SM CLR M01/M04 A3008 RMK AO2 SLP212 T10111044 10000 21017 53002
KBNO 062253Z AUTO 00000KT 10SM CLR M01/M04 A3007 RMK AO2 SLP207 T10061039
KBNO 062153Z AUTO 18004KT 10SM CLR 00/M03 A3007 RMK AO2 SLP207 T00001033
KBNO 062053Z AUTO 20003KT 10SM BKN037 M01/M03 A3007 RMK AO2 SLP208 T10061033 55000
KBNO 062011Z AUTO 00000KT 10SM SCT004 BKN037 M01/M03 A3007 RMK AO2 T10061028
KBNO 062003Z AUTO 00000KT 10SM BKN004 M01/M03 A3007 RMK AO2 T10061028
KBNO 061953Z AUTO 00000KT 10SM OVC005 M01/M03 A3007 RMK AO2 SLP208 T10061028
KBNO 061920Z AUTO 00000KT 10SM OVC005 00/M03 A3007 RMK AO2 T00001028
KBNO 061853Z AUTO 00000KT 10SM OVC004 M01/M03 A3007 RMK AO2 SLP208 T10061028
KBNO 061849Z AUTO 00000KT 10SM OVC004 M01/M03 A3007 RMK AO2
KBNO 061817Z AUTO 00000KT 10SM OVC005 M01/M03 A3008 RMK AO2 T10111028
KBNO 061753Z AUTO 00000KT 5SM BR OVC003 M02/M03 A3007 RMK AO2 SLP209 T10171028 11017 21033 51008
KBNO 061748Z AUTO 00000KT 2SM BR OVC003 M02/M03 A3007 RMK AO2 VIS 1V5
KBNO 061730Z AUTO 00000KT 1SM BR OVC002 M02/M03 A3007 RMK AO2 T10171033
KBNO 061713Z AUTO 00000KT 1 3/4SM BR OVC003 M02/M04 A3007 RMK AO2 T10221039
KBNO 061658Z AUTO 00000KT 3SM BR OVC003 M02/M04 A3006 RMK AO2 T10221039
KBNO 061656Z AUTO 00000KT 1 1/2SM BR OVC003 M02/M04 A3006 RMK AO2 T10221039
KBNO 061653Z AUTO 00000KT 3/4SM BR VV003 M02/M04 A3006 RMK AO2 SLP207 T10221039
KBNO 061651Z AUTO 00000KT 1/2SM FZFG VV003 M02/M04 A3006 RMK AO2
KBNO 061631Z AUTO 01003KT 1/4SM FZFG VV003 M03/M04 A3006 RMK AO2 T10281039
KBNO 061624Z AUTO 36003KT 1/4SM FZFG OVC004 M03/M04 A3006 RMK AO2 T10281044
KBNO 061618Z AUTO 01003KT 1 1/4SM BR OVC004 M03/M05 A3005 RMK AO2 T10281050
KBNO 061553Z AUTO 00000KT 10SM OVC004 M03/M05 A3005 RMK AO2 SLP204 T10331050
KBNO 061543Z AUTO 00000KT 10SM OVC004 M03/M05 A3005 RMK AO2 T10331050
KBNO 061506Z AUTO 00000KT 4SM BR OVC003 M03/M05 A3004 RMK AO2 T10331050
KBNO 061453Z AUTO 09003KT 2SM BR OVC003 M03/M05 A3003 RMK AO2 SLP199 T10331050 51009
KBNO 061448Z AUTO 00000KT 2SM BR OVC003 M03/M05 A3003 RMK AO2
KBNO 061437Z AUTO 09003KT 5SM BR OVC003 M03/M05 A3002 RMK AO2 T10331050
KBNO 061353Z AUTO 12003KT 10SM BKN006 OVC041 M03/M05 A3001 RMK AO2 SLP192 T10331050
KBNO 061307Z AUTO 00000KT 10SM BKN005 OVC039 M03/M05 A3001 RMK AO2 T10331050
KBNO 061253Z AUTO 09004KT 10SM SCT005 OVC039 M03/M05 A3000 RMK AO2 SLP192 T10331050
KBNO 061219Z AUTO 12005KT 10SM SCT005 OVC038 M03/M05 A3000 RMK AO2 T10331050
KBNO 061153Z AUTO 08006KT 9SM OVC038 M03/M05 A3000 RMK AO2 SLP187 T10331050 11022 21039 50006
KBNO 061053Z AUTO 03004KT 8SM OVC039 M03/M06 A3000 RMK AO2 SLP184 T10331056
KBNO 060953Z AUTO 00000KT 10SM OVC043 M03/M05 A2999 RMK AO2 SLP181 T10331050
KBNO 060853Z AUTO 10SM FEW004 BKN035 OVC042 M03/M04 A2998 RMK AO2 SLP177 T10281044 51005
KBNO 060753Z AUTO 00000KT 8SM OVC036 M03/M04 A2998 RMK AO2 SLP177 T10281044 400001089
KBNO 060653Z AUTO 19003KT 10SM OVC033 M03/M04 A2998 RMK AO2 SLP175 T10281044
KBNO 060553Z AUTO 28004KT 10SM OVC034 M02/M04 A2996 RMK AO2 SLP173 T10221044 11022 21050 51011
KBNO 060453Z AUTO 00000KT 10SM OVC031 M02/M04 A2996 RMK AO2 SLP172 T10221039
KBNO 060353Z AUTO 00000KT 10SM FEW013 OVC033 M02/M04 A2994 RMK AO2 SLP169 T10221044
KBNO 060253Z AUTO 32003KT 10SM FEW013 OVC032 M03/M04 A2993 RMK AO2 SLP169 T10281044 53003
KBNO 060153Z AUTO 31003KT 10SM OVC035 M03/M04 A2993 RMK AO2 SLP170 T10281044
KBNO 060058Z AUTO 32004KT 3SM BR OVC035 M04/M06 A2992 RMK AO2 T10391056
KBNO 060053Z AUTO 31004KT 1 3/4SM BR OVC035 M04/M06 A2992 RMK AO2 VIS 1 1/4V3 SLP170 T10441061
KBNO 060044Z AUTO 32003KT 1 3/4SM BR BKN039 OVC070 M04/M06 A2992 RMK AO2 VIS 1V4 T10441061
KBNO 052353Z AUTO 00000KT 10SM OVC043 M02/M04 A2992 RMK AO2 SNE24 SLP166 P0000 60000 T10221044 10000 21028 55002
KBNO 052328Z AUTO 00000KT 9SM FEW024 BKN041 OVC050 M01/M03 A2992 RMK AO2 SNE24 P0000 T10111033
KBNO 052320Z AUTO 00000KT 6SM -SN BR BKN025 OVC039 M01/M03 A2992 RMK AO2 P0000 T10111033
KBNO 052310Z AUTO 00000KT 2SM -SN BR BKN025 BKN029 OVC037 M01/M03 A2992 RMK AO2 P0000 T10061028
KBNO 052253Z AUTO 00000KT 1SM -SN BKN021 BKN038 OVC047 00/M03 A2991 RMK AO2 SNE10B35 SLP160 P0000 T00001033
KBNO 052250Z AUTO 00000KT 1 1/4SM -SN BKN023 BKN031 OVC047 00/M03 A2991 RMK AO2 SNE10B35 P0000
KBNO 052248Z AUTO 00000KT 1 3/4SM -SN SCT026 BKN031 OVC050 00/M03 A2991 RMK AO2 SNE10B35 P0000
KBNO 052153Z AUTO 28003KT 7SM -SN OVC038 00/M03 A2992 RMK AO2 SNB01E32B50 SLP162 P0000 T00001033
KBNO 052053Z AUTO 20003KT 10SM FEW046 OVC060 M01/M03 A2993 RMK AO2 SLP167 60000 T10111033 58014
KBNO 051953Z AUTO 00000KT 10SM OVC050 M01/M03 A2994 RMK AO2 SLP174 T10111028
KBNO 051853Z AUTO 01003KT 10SM BKN055 OVC070 M01/M03 A2996 RMK AO2 SNB23E47 SLP180 P0000 T10061033